Time;durP1;ratioP1;P1;durP2;ratioP2;P2;SDS_P1;SDS_P2;PMS_P1;PMS_P2;Temp;Humidity;BMP_temperature;BMP_pressure;BME280_temperature;BME280_humidity;BME280_pressure;Samples;Min_cycle;Max_cycle;Signal;HPM_P1;HPM_P2
2022/07/12 00:02:17;;;;;;;44.90;42.60;;;16.20;99.90;;;;;;5030440;28;20179;-75
2022/07/12 00:04:43;;;;;;;44.70;42.17;;;16.20;99.90;;;;;;5031749;28;20210;-75
2022/07/12 00:07:10;;;;;;;34.07;32.23;;;16.10;99.90;;;;;;5049400;28;20218;-75
2022/07/12 00:09:37;;;;;;;34.13;32.43;;;16.10;99.90;;;;;;5051563;28;20225;-75
2022/07/12 00:12:04;;;;;;;18.77;17.83;;;16.10;99.90;;;;;;5051674;28;20186;-74
2022/07/12 00:14:29;;;;;;;22.37;21.10;;;16.20;99.90;;;;;;5051474;28;20190;-74
2022/07/12 00:16:55;;;;;;;19.43;18.33;;;16.10;99.90;;;;;;5050796;28;20237;-74
2022/07/12 00:19:21;;;;;;;24.10;22.80;;;16.20;99.90;;;;;;5047966;28;20643;-75
2022/07/12 00:21:47;;;;;;;35.07;33.27;;;16.20;99.90;;;;;;5031632;28;20179;-77
2022/07/12 00:24:13;;;;;;;62.33;58.80;;;16.20;99.90;;;;;;5031521;28;20213;-74
2022/07/12 00:26:39;;;;;;;112.00;106.27;;;16.20;99.90;;;;;;5031268;28;20206;-74
2022/07/12 00:29:05;;;;;;;118.60;112.53;;;16.20;99.90;;;;;;5029454;28;20209;-74
2022/07/12 00:31:30;;;;;;;147.50;139.87;;;16.20;99.90;;;;;;5030210;28;20671;-75
2022/07/12 00:33:56;;;;;;;157.27;149.20;;;16.20;99.90;;;;;;5034929;28;20213;-74
2022/07/12 00:36:22;;;;;;;155.23;147.40;;;16.10;99.90;;;;;;5051114;28;20291;-75
2022/07/12 00:38:48;;;;;;;156.60;148.63;;;16.10;99.90;;;;;;5050241;28;20208;-76
2022/07/12 00:41:15;;;;;;;165.10;156.63;;;16.10;99.90;;;;;;5051098;28;20190;-74
2022/07/12 00:43:41;;;;;;;143.33;135.90;;;16.10;99.90;;;;;;5049652;28;20174;-76
2022/07/12 00:46:08;;;;;;;183.60;174.10;;;16.10;99.90;;;;;;5051082;28;20210;-75
2022/07/12 00:48:34;;;;;;;180.70;171.50;;;16.10;99.90;;;;;;5049397;28;20279;-75
2022/07/12 00:51:01;;;;;;;194.43;184.50;;;16.10;99.90;;;;;;5051072;28;20213;-75
2022/07/12 00:53:27;;;;;;;183.50;174.10;;;16.10;99.90;;;;;;5051006;28;20175;-75
2022/07/12 00:55:57;;;;;;;196.63;186.47;;;16.00;99.90;;;;;;5050247;28;20602;-75
2022/07/12 00:58:24;;;;;;;180.57;171.37;;;16.00;99.90;;;;;;5049959;28;20275;-75
2022/07/12 01:00:50;;;;;;;135.40;128.40;;;15.90;99.90;;;;;;5050688;28;20201;-74
2022/07/12 01:03:18;;;;;;;120.07;113.97;;;16.00;99.90;;;;;;5048101;28;20186;-76
2022/07/12 01:05:44;;;;;;;134.10;127.07;;;16.00;99.90;;;;;;5038406;28;20648;-75
2022/07/12 01:08:12;;;;;;;151.27;143.57;;;15.90;99.90;;;;;;5032365;28;20211;-75
2022/07/12 01:10:39;;;;;;;103.30;97.73;;;15.80;99.90;;;;;;5030276;28;20548;-75
2022/07/12 01:13:05;;;;;;;107.27;101.87;;;15.80;99.90;;;;;;5029775;28;20720;-75
2022/07/12 01:15:32;;;;;;;122.67;116.47;;;15.80;99.90;;;;;;5031222;28;20183;-76
2022/07/12 01:17:59;;;;;;;100.83;95.73;;;15.80;99.90;;;;;;5045902;28;20212;-76
2022/07/12 01:20:26;;;;;;;74.43;70.53;;;15.90;99.90;;;;;;5050817;28;20247;-75
2022/07/12 01:22:59;;;;;;;50.47;47.87;;;15.80;99.90;;;;;;5050724;28;20198;-75
2022/07/12 01:25:25;;;;;;;32.03;30.40;;;15.70;99.90;;;;;;5050642;28;20210;-76
2022/07/12 01:27:51;;;;;;;18.53;17.63;;;15.50;99.90;;;;;;5049859;28;20190;-75
2022/07/12 01:30:17;;;;;;;12.60;11.90;;;15.50;99.90;;;;;;5050198;28;20639;-75
2022/07/12 01:32:44;;;;;;;14.70;13.93;;;15.40;99.90;;;;;;5029548;28;20193;-75
2022/07/12 01:35:10;;;;;;;14.47;13.53;;;15.40;99.90;;;;;;5030796;28;20194;-76
2022/07/12 01:37:38;;;;;;;12.57;11.93;;;15.30;99.90;;;;;;5029882;28;20203;-76
2022/07/12 01:40:06;;;;;;;57.57;54.57;;;15.30;99.90;;;;;;5030757;28;20182;-76
2022/07/12 01:42:32;;;;;;;72.67;69.07;;;15.30;99.90;;;;;;5029503;28;20596;-75
2022/07/12 01:44:58;;;;;;;98.57;93.57;;;15.30;99.90;;;;;;5034263;28;20228;-76
2022/07/12 01:47:28;;;;;;;134.33;127.17;;;15.30;99.90;;;;;;5049837;28;20260;-76
2022/07/12 01:49:54;;;;;;;131.47;124.53;;;15.20;99.90;;;;;;5049248;28;20183;-76
2022/07/12 01:52:21;;;;;;;169.93;161.20;;;15.20;99.90;;;;;;5049165;28;20201;-76
2022/07/12 01:54:47;;;;;;;164.00;155.73;;;15.10;99.90;;;;;;5050652;28;20240;-74
2022/07/12 01:57:13;;;;;;;146.60;139.13;;;15.00;99.90;;;;;;5049182;28;20229;-74
2022/07/12 01:59:41;;;;;;;122.63;116.27;;;15.00;99.90;;;;;;5048286;28;20186;-75
2022/07/12 02:02:07;;;;;;;89.80;85.30;;;14.90;99.90;;;;;;5050157;28;20599;-75
2022/07/12 02:04:34;;;;;;;67.17;63.53;;;14.80;99.90;;;;;;5050313;28;20244;-75
2022/07/12 02:09:30;;;;;;;52.77;50.03;;;14.70;99.90;;;;;;4986534;28;20592;-73
2022/07/12 02:11:56;;;;;;;67.07;63.77;;;14.70;99.90;;;;;;4992290;28;20215;-73
2022/07/12 02:14:22;;;;;;;73.27;69.53;;;14.70;99.90;;;;;;4995085;28;20192;-73
2022/07/12 02:16:48;;;;;;;76.40;72.67;;;14.60;99.90;;;;;;4994083;28;20177;-73
2022/07/12 02:19:14;;;;;;;78.73;74.87;;;14.50;99.90;;;;;;4994696;28;20208;-73
2022/07/12 02:21:40;;;;;;;83.33;78.87;;;14.50;99.90;;;;;;4994309;28;20181;-73
2022/07/12 02:24:07;;;;;;;78.23;74.37;;;14.40;99.90;;;;;;4994473;28;20209;-73
2022/07/12 02:26:37;;;;;;;65.30;61.93;;;14.30;99.90;;;;;;4991299;28;20274;-73
2022/07/12 02:29:04;;;;;;;41.23;39.20;;;14.20;99.90;;;;;;4993507;28;20207;-73
2022/07/12 02:31:30;;;;;;;35.60;33.80;;;14.20;99.90;;;;;;4994287;28;20652;-73
2022/07/12 02:33:57;;;;;;;30.03;28.40;;;14.10;99.90;;;;;;4994132;28;20211;-73
2022/07/12 02:36:23;;;;;;;22.63;21.37;;;14.10;99.90;;;;;;4993754;28;20223;-73
2022/07/12 02:38:49;;;;;;;17.50;16.53;;;14.10;99.90;;;;;;4992093;28;20711;-73
2022/07/12 02:41:15;;;;;;;13.80;13.13;;;14.10;99.90;;;;;;4994155;28;20210;-73
2022/07/12 02:43:41;;;;;;;13.67;12.87;;;14.10;99.90;;;;;;4992753;28;20181;-73
2022/07/12 02:46:09;;;;;;;14.70;13.83;;;13.90;99.90;;;;;;4993788;28;20177;-73
2022/07/12 02:48:35;;;;;;;12.60;11.90;;;13.80;99.90;;;;;;4973653;28;20205;-73
2022/07/12 02:51:03;;;;;;;20.43;19.40;;;13.80;99.90;;;;;;4983441;28;20683;-73
2022/07/12 02:53:29;;;;;;;21.40;20.27;;;13.80;99.90;;;;;;5014010;28;20179;-73
2022/07/12 02:55:55;;;;;;;24.43;23.13;;;13.80;99.90;;;;;;5025452;28;20643;-73
2022/07/12 02:58:21;;;;;;;25.77;24.40;;;13.70;99.90;;;;;;4994460;28;20208;-73
2022/07/12 03:00:47;;;;;;;25.30;24.03;;;13.70;99.90;;;;;;4993723;28;20577;-73
2022/07/12 03:03:13;;;;;;;22.73;21.43;;;13.60;99.90;;;;;;4993399;28;20246;-73
2022/07/12 03:05:40;;;;;;;22.63;21.40;;;13.60;99.90;;;;;;4993223;28;20218;-73
2022/07/12 03:08:07;;;;;;;18.87;17.77;;;13.60;99.90;;;;;;4991581;28;20212;-72
2022/07/12 03:10:34;;;;;;;26.30;24.93;;;13.60;99.90;;;;;;4992075;28;20180;-73
2022/07/12 03:13:00;;;;;;;25.43;24.07;;;13.60;99.90;;;;;;4993257;28;20195;-73
2022/07/12 03:15:27;;;;;;;19.83;18.80;;;13.50;99.90;;;;;;4993481;28;20184;-73
2022/07/12 03:17:54;;;;;;;25.43;24.13;;;13.50;99.90;;;;;;4988266;28;20565;-73
2022/07/12 03:20:20;;;;;;;16.80;15.87;;;13.40;99.90;;;;;;4982434;28;20184;-72
2022/07/12 03:22:48;;;;;;;15.27;14.30;;;13.50;99.90;;;;;;4991359;28;20716;-73
2022/07/12 03:25:14;;;;;;;13.87;13.17;;;13.40;99.90;;;;;;4992388;28;20208;-72
2022/07/12 03:27:40;;;;;;;11.73;10.93;;;13.50;99.90;;;;;;4991534;28;20204;-73
2022/07/12 03:30:08;;;;;;;10.73;9.90;;;13.40;99.90;;;;;;4992359;28;20540;-72
2022/07/12 03:32:35;;;;;;;16.50;15.63;;;13.40;99.90;;;;;;4990884;28;20272;-73
2022/07/12 03:35:00;;;;;;;23.77;22.43;;;13.40;99.90;;;;;;4988254;28;20189;-73
2022/07/12 03:37:28;;;;;;;26.40;24.97;;;13.40;99.90;;;;;;4971700;28;20212;-72
2022/07/12 03:39:53;;;;;;;26.13;24.70;;;13.30;99.90;;;;;;4972204;28;20185;-72
2022/07/12 03:42:20;;;;;;;20.07;18.90;;;13.30;99.90;;;;;;4972209;28;20251;-72
2022/07/12 03:44:46;;;;;;;14.73;13.73;;;13.30;99.90;;;;;;5004646;28;20299;-72
2022/07/12 03:47:12;;;;;;;17.17;15.67;;;13.40;99.90;;;;;;5003923;28;20260;-72
2022/07/12 03:49:38;;;;;;;20.57;19.53;;;13.30;99.90;;;;;;4973342;28;20680;-72
2022/07/12 03:52:04;;;;;;;21.57;19.87;;;13.30;99.90;;;;;;5004412;28;20209;-72
2022/07/12 03:54:30;;;;;;;60.90;57.47;;;13.30;99.90;;;;;;4973301;28;20615;-72
2022/07/12 03:57:14;;;;;;;49.40;46.87;;;13.30;99.90;;;;;;4972139;28;20288;-72
2022/07/12 03:59:44;;;;;;;28.40;26.90;;;13.20;99.90;;;;;;4973139;28;20196;-72
2022/07/12 04:02:10;;;;;;;30.17;28.47;;;13.30;99.90;;;;;;4973052;28;20700;-72
2022/07/12 04:04:36;;;;;;;31.53;29.83;;;13.30;99.90;;;;;;4973215;28;20212;-72
2022/07/12 04:07:02;;;;;;;27.47;26.07;;;13.30;99.90;;;;;;5003728;28;20276;-72
2022/07/12 04:09:28;;;;;;;21.07;20.00;;;13.30;99.90;;;;;;4972955;28;20303;-72
2022/07/12 04:11:54;;;;;;;19.97;18.90;;;13.30;99.90;;;;;;4972865;28;20185;-72
2022/07/12 04:14:20;;;;;;;23.87;22.53;;;13.30;99.90;;;;;;4987786;28;20705;-70
2022/07/12 04:16:47;;;;;;;17.57;16.63;;;13.30;99.90;;;;;;4972496;28;20188;-72
2022/07/12 04:19:12;;;;;;;12.27;11.33;;;13.40;99.90;;;;;;4987698;28;20286;-72
2022/07/12 04:21:38;;;;;;;27.23;25.90;;;13.50;99.90;;;;;;4972830;28;20242;-71
2022/07/12 04:24:05;;;;;;;45.23;42.87;;;13.50;99.90;;;;;;5003977;28;20221;-71
2022/07/12 04:26:31;;;;;;;49.57;46.63;;;13.50;99.90;;;;;;4988395;28;20280;-72
2022/07/12 04:28:57;;;;;;;29.83;28.13;;;13.60;99.90;;;;;;4972078;28;20193;-71
2022/07/12 04:31:24;;;;;;;49.60;47.07;;;13.70;99.90;;;;;;5004183;28;20710;-72
2022/07/12 04:33:51;;;;;;;53.40;50.43;;;13.80;99.90;;;;;;4972288;28;20268;-72
2022/07/12 04:36:17;;;;;;;46.80;44.27;;;14.00;99.90;;;;;;4972483;28;20825;-71
2022/07/12 04:38:42;;;;;;;32.70;30.70;;;14.20;99.90;;;;;;4971729;28;20200;-71
2022/07/12 04:41:08;;;;;;;35.03;33.27;;;14.40;99.90;;;;;;5006064;28;20285;-72
2022/07/12 04:43:34;;;;;;;6.40;6.07;;;14.50;99.90;;;;;;4981224;28;20208;-72
2022/07/12 04:46:10;;;;;;;12.53;11.57;;;14.70;99.90;;;;;;5004668;28;20292;-77
2022/07/12 04:48:36;;;;;;;29.23;27.63;;;14.90;99.90;;;;;;4972816;28;20743;-77
2022/07/12 04:51:02;;;;;;;25.13;23.63;;;15.00;99.90;;;;;;4973315;28;20181;-77
2022/07/12 04:53:29;;;;;;;13.43;12.73;;;15.00;99.90;;;;;;4981208;28;20185;-79
2022/07/12 04:55:55;;;;;;;8.27;7.67;;;15.00;99.90;;;;;;5001527;28;20195;-79
2022/07/12 04:58:22;;;;;;;11.77;10.90;;;15.00;99.90;;;;;;5018974;28;20220;-78
2022/07/12 05:00:48;;;;;;;8.63;7.80;;;15.10;99.90;;;;;;4984230;28;20194;-79
2022/07/12 05:03:14;;;;;;;22.93;21.70;;;15.20;99.90;;;;;;4996920;28;20185;-78
2022/07/12 05:05:40;;;;;;;43.13;40.90;;;15.30;99.90;;;;;;4985775;28;20248;-78
2022/07/12 05:08:05;;;;;;;29.10;27.53;;;15.40;99.90;;;;;;4979732;28;20226;-79
2022/07/12 05:10:31;;;;;;;10.47;9.87;;;15.40;99.90;;;;;;5011541;28;20212;-79
2022/07/12 05:12:57;;;;;;;6.43;6.00;;;15.40;99.90;;;;;;4979334;28;20181;-79
2022/07/12 05:15:23;;;;;;;6.80;6.33;;;15.50;99.90;;;;;;4979737;28;20177;-79
2022/07/12 05:17:49;;;;;;;70.90;67.33;;;15.70;99.90;;;;;;4978803;28;20209;-79
2022/07/12 05:20:15;;;;;;;20.03;19.07;;;16.30;99.90;;;;;;5009331;28;20263;-78
2022/07/12 05:22:43;;;;;;;46.80;44.40;;;17.00;99.90;;;;;;5009276;28;20189;-79
2022/07/12 05:25:09;;;;;;;37.43;35.57;;;17.60;99.90;;;;;;4993988;28;20215;-78
2022/07/12 05:27:38;;;;;;;33.70;31.93;;;17.80;99.90;;;;;;5016824;28;20212;-79
2022/07/12 05:30:05;;;;;;;56.73;53.80;;;17.70;99.90;;;;;;4993799;28;20189;-79
2022/07/12 05:32:31;;;;;;;153.77;145.73;;;17.70;99.90;;;;;;5009874;28;20189;-80
2022/07/12 05:34:57;;;;;;;50.17;47.33;;;18.30;99.90;;;;;;4992682;28;20208;-79
2022/07/12 05:37:24;;;;;;;8.73;8.13;;;19.10;99.90;;;;;;4992025;28;20770;-79
2022/07/12 05:39:52;;;;;;;10.33;9.83;;;19.90;99.90;;;;;;4996296;28;20231;-78
2022/07/12 05:42:18;;;;;;;8.98;8.38;;;20.40;99.90;;;;;;4981942;28;20185;-79
2022/07/12 05:44:44;;;;;;;5.77;5.37;;;20.50;99.90;;;;;;4978721;28;20213;-79
2022/07/12 05:47:10;;;;;;;5.55;5.20;;;20.40;99.90;;;;;;4980089;28;20678;-79
2022/07/12 05:49:37;;;;;;;7.22;6.82;;;20.40;99.90;;;;;;4996515;28;20185;-79
2022/07/12 05:54:47;;;;;;;7.32;7.03;;;21.30;99.90;;;;;;4982212;28;20177;-79
2022/07/12 05:57:14;;;;;;;9.80;9.15;;;21.90;99.90;;;;;;5011421;28;20613;-79
2022/07/12 05:59:41;;;;;;;11.05;10.45;;;22.40;99.90;;;;;;5011161;28;20231;-80
2022/07/12 06:02:06;;;;;;;21.52;20.38;;;22.60;99.90;;;;;;4978293;28;20185;-79
2022/07/12 06:04:32;;;;;;;16.95;15.93;;;23.00;99.90;;;;;;4996319;28;20217;-80
2022/07/12 06:06:58;;;;;;;9.30;8.63;;;23.20;99.90;;;;;;4990366;28;20181;-77
2022/07/12 06:09:24;;;;;;;6.80;6.40;;;23.60;99.90;;;;;;4995481;28;20688;-80
2022/07/12 06:11:49;;;;;;;10.20;9.35;;;23.40;99.90;;;;;;5013064;28;20605;-79
2022/07/12 06:14:15;;;;;;;8.57;8.07;;;23.10;99.90;;;;;;4983163;28;20216;-80
2022/07/12 06:16:42;;;;;;;6.15;5.75;;;23.10;99.90;;;;;;5003146;28;20249;-78
2022/07/12 06:19:07;;;;;;;7.53;7.13;;;23.40;99.90;;;;;;4992549;28;20772;-78
2022/07/12 06:21:33;;;;;;;6.05;5.65;;;23.10;99.90;;;;;;5000230;28;20229;-79
2022/07/12 06:23:59;;;;;;;6.25;5.78;;;23.50;99.90;;;;;;4999347;28;20185;-79
2022/07/12 06:26:25;;;;;;;8.93;8.52;;;24.00;99.90;;;;;;4994668;28;20203;-79
2022/07/12 06:28:51;;;;;;;7.25;6.88;;;24.40;99.90;;;;;;4992110;28;20216;-79
2022/07/12 06:31:17;;;;;;;6.88;6.38;;;24.70;99.90;;;;;;4998845;28;20177;-79
2022/07/12 06:33:43;;;;;;;8.93;8.52;;;24.90;99.90;;;;;;4997872;28;20181;-79
2022/07/12 06:36:09;;;;;;;7.82;7.50;;;25.10;99.90;;;;;;5016390;28;20599;-78
2022/07/12 06:38:34;;;;;;;7.00;6.70;;;25.10;99.90;;;;;;5015159;28;20205;-78
2022/07/12 06:41:00;;;;;;;7.35;7.05;;;25.20;99.90;;;;;;4983856;28;20364;-79
2022/07/12 06:43:26;;;;;;;5.47;5.25;;;25.40;99.90;;;;;;5004829;28;20177;-78
2022/07/12 06:45:53;;;;;;;10.88;10.40;;;25.50;99.90;;;;;;5017726;28;20275;-79
2022/07/12 06:48:19;;;;;;;12.73;12.07;;;26.10;99.90;;;;;;5014862;28;20773;-79
2022/07/12 06:50:44;;;;;;;12.27;11.75;;;25.90;99.90;;;;;;4983855;28;20192;-79
2022/07/12 06:53:14;;;;;;;11.07;5.72;;;25.00;99.90;;;;;;4997397;28;20177;-79
2022/07/12 06:55:42;;;;;;;9.43;8.95;;;24.40;99.90;;;;;;4982313;28;20188;-79
2022/07/12 06:58:08;;;;;;;23.77;22.45;;;24.00;99.90;;;;;;4981483;28;20220;-78
2022/07/12 07:00:34;;;;;;;19.83;18.83;;;23.90;99.90;;;;;;4997784;28;20613;-79
2022/07/12 07:03:00;;;;;;;16.52;15.82;;;24.00;99.90;;;;;;4997124;28;20196;-79
2022/07/12 07:05:26;;;;;;;7.07;6.75;;;23.90;99.90;;;;;;5013134;28;20280;-78
2022/07/12 07:07:52;;;;;;;3.38;3.22;;;23.70;99.90;;;;;;4980410;28;20253;-78
2022/07/12 07:10:17;;;;;;;3.40;3.30;;;23.80;99.90;;;;;;4998128;28;20188;-77
2022/07/12 07:12:44;;;;;;;3.78;3.67;;;23.90;99.90;;;;;;4999267;28;20184;-76
2022/07/12 07:15:10;;;;;;;4.43;4.18;;;23.90;99.90;;;;;;4998438;28;20180;-77
2022/07/12 07:17:36;;;;;;;4.82;4.65;;;23.70;99.90;;;;;;4996912;28;20205;-78
2022/07/12 07:20:02;;;;;;;4.10;3.90;;;23.70;99.90;;;;;;4997058;28;20231;-79
2022/07/12 07:22:28;;;;;;;4.35;4.15;;;23.80;99.90;;;;;;5013594;28;20181;-78
2022/07/12 07:24:54;;;;;;;3.75;3.65;;;24.20;99.90;;;;;;4982192;28;20771;-78
2022/07/12 07:27:20;;;;;;;14.27;13.52;;;24.90;99.90;;;;;;5014030;28;20589;-77
2022/07/12 07:32:31;;;;;;;12.95;12.35;;;26.90;99.90;;;;;;4987190;28;20263;-77
2022/07/12 07:34:56;;;;;;;3.17;3.08;;;27.90;96.40;;;;;;4987609;28;20291;-77
2022/07/12 07:37:23;;;;;;;5.95;2.90;;;28.10;93.70;;;;;;5000314;28;20546;-78
2022/07/12 07:39:49;;;;;;;3.30;3.20;;;28.10;93.70;;;;;;5014778;28;20181;-78
2022/07/12 07:42:14;;;;;;;3.22;3.13;;;28.50;93.40;;;;;;4980565;28;20239;-77
2022/07/12 07:44:41;;;;;;;2.90;2.80;;;28.70;91.10;;;;;;4990618;28;20208;-78
2022/07/12 07:47:07;;;;;;;2.78;2.72;;;28.80;92.20;;;;;;4975132;28;20807;-78
2022/07/12 07:49:32;;;;;;;3.53;3.22;;;28.80;90.80;;;;;;4992549;28;20200;-78
2022/07/12 07:51:58;;;;;;;2.80;2.70;;;28.20;91.10;;;;;;4979416;28;20244;-79
2022/07/12 07:54:24;;;;;;;3.25;2.97;;;27.60;91.70;;;;;;5000534;28;20192;-78
2022/07/12 07:56:50;;;;;;;3.75;3.55;;;27.10;92.60;;;;;;5017146;28;20180;-78
2022/07/12 07:59:16;;;;;;;2.92;2.83;;;27.10;92.60;;;;;;4984638;28;20613;-79
2022/07/12 08:01:42;;;;;;;3.10;3.00;;;27.70;92.70;;;;;;5014392;28;20216;-79
2022/07/12 08:04:13;;;;;;;2.90;2.80;;;28.20;92.00;;;;;;4982422;28;20681;-79
2022/07/12 08:06:39;;;;;;;3.03;2.92;;;28.00;90.30;;;;;;5013547;28;20242;-78
2022/07/12 08:09:06;;;;;;;3.20;3.10;;;28.10;90.40;;;;;;5013582;22;20670;-77
2022/07/12 08:11:32;;;;;;;3.85;3.67;;;28.30;89.60;;;;;;4992604;28;20181;-77
2022/07/12 08:13:59;;;;;;;3.83;3.67;;;28.40;87.70;;;;;;4991216;28;20235;-77
2022/07/12 08:16:25;;;;;;;4.47;4.22;;;28.20;88.70;;;;;;4992579;28;20184;-77
2022/07/12 08:18:52;;;;;;;3.42;3.33;;;28.60;88.10;;;;;;4991730;28;20192;-77
2022/07/12 08:21:18;;;;;;;2.90;2.80;;;29.20;88.10;;;;;;4991518;28;20188;-77
2022/07/12 08:23:44;;;;;;;3.45;3.28;;;29.50;84.90;;;;;;4992182;28;20185;-77
2022/07/12 08:26:10;;;;;;;4.57;4.38;;;28.80;86.60;;;;;;4992060;28;20339;-77
2022/07/12 08:28:36;;;;;;;6.00;5.80;;;27.70;86.40;;;;;;4991093;28;20200;-77
2022/07/12 08:31:02;;;;;;;3.58;3.47;;;27.00;90.20;;;;;;4991922;28;20184;-77
2022/07/12 08:33:29;;;;;;;5.60;5.30;;;26.00;90.60;;;;;;4992042;28;20181;-77
2022/07/12 08:35:55;;;;;;;7.95;7.68;;;24.90;92.80;;;;;;4992080;28;20192;-77
2022/07/12 08:38:21;;;;;;;21.98;21.02;;;24.30;93.80;;;;;;4991147;28;20211;-77
2022/07/12 08:40:46;;;;;;;11.38;10.90;;;23.80;94.70;;;;;;4991950;28;20188;-77
2022/07/12 08:43:13;;;;;;;5.97;5.75;;;23.70;94.70;;;;;;4992484;28;20215;-78
2022/07/12 08:45:40;;;;;;;3.78;3.65;;;23.80;95.30;;;;;;4990893;28;20239;-78
2022/07/12 08:48:07;;;;;;;3.97;3.88;;;24.10;95.60;;;;;;4991051;28;20751;-77
2022/07/12 08:50:33;;;;;;;3.83;3.63;;;24.40;95.20;;;;;;4991121;28;20272;-78
2022/07/12 08:52:59;;;;;;;13.13;12.52;;;24.50;94.20;;;;;;4990597;28;20262;-77
2022/07/12 08:55:33;;;;;;;15.23;14.60;;;25.00;92.30;;;;;;4992189;28;20241;-76
2022/07/12 08:58:06;;;;;;;19.23;18.33;;;25.90;91.70;;;;;;4991308;28;20262;-77
2022/07/12 09:00:32;;;;;;;4.53;4.43;;;26.60;90.70;;;;;;4990388;28;20204;-77
2022/07/12 09:03:00;;;;;;;3.28;3.17;;;27.40;87.40;;;;;;4991557;28;20547;-77
2022/07/12 09:05:33;;;;;;;3.00;2.90;;;27.60;84.30;;;;;;4990411;28;20771;-77
2022/07/12 09:08:10;;;;;;;4.35;4.25;;;28.00;82.90;;;;;;4989049;28;20205;-78
2022/07/12 09:10:57;;;;;;;3.67;3.58;;;28.40;79.90;;;;;;4991569;28;20179;-77
2022/07/12 09:13:53;;;;;;;3.03;2.92;;;28.70;77.90;;;;;;4990414;28;20180;-78
2022/07/12 09:16:21;;;;;;;2.95;2.85;;;29.30;76.00;;;;;;4991602;28;20669;-77
2022/07/12 09:18:48;;;;;;;3.28;3.17;;;29.90;72.70;;;;;;4990665;28;20379;-78
2022/07/12 09:21:27;;;;;;;3.08;2.92;;;30.00;73.20;;;;;;4993558;28;20254;-77
2022/07/12 09:23:57;;;;;;;3.30;3.20;;;30.60;72.80;;;;;;4995461;28;20188;-77
2022/07/12 09:26:29;;;;;;;6.97;6.72;;;30.40;71.50;;;;;;4994459;28;20215;-76
2022/07/12 09:29:05;;;;;;;3.47;3.38;;;30.40;69.40;;;;;;5001987;28;20231;-76
2022/07/12 09:37:18;;;;;;;4.63;4.53;;;29.70;69.70;;;;;;4994317;28;20196;-78
2022/07/12 09:39:44;;;;;;;5.10;5.00;;;29.10;71.20;;;;;;4995121;28;20620;-77
2022/07/12 09:42:12;;;;;;;3.55;3.45;;;29.20;71.00;;;;;;4994361;28;20556;-78
2022/07/12 09:44:41;;;;;;;4.35;4.25;;;30.00;69.40;;;;;;4995077;28;20820;-76
2022/07/12 09:47:15;;;;;;;4.28;4.18;;;29.60;67.10;;;;;;4994632;28;20263;-77
2022/07/12 09:49:45;;;;;;;5.63;5.43;;;29.10;67.40;;;;;;4996554;28;20292;-77
2022/07/12 09:52:22;;;;;;;4.10;4.00;;;29.10;68.20;;;;;;4994968;28;20259;-77
2022/07/12 09:54:52;;;;;;;5.28;5.07;;;29.80;69.50;;;;;;4994284;28;20199;-77
2022/07/12 09:57:32;;;;;;;4.80;4.70;;;30.70;65.80;;;;;;4994336;28;20192;-77
2022/07/12 10:00:00;;;;;;;4.50;4.40;;;30.70;66.10;;;;;;4995553;28;20669;-77
2022/07/12 10:02:27;;;;;;;3.72;3.63;;;30.20;67.90;;;;;;4995121;28;20657;-77
2022/07/12 10:04:53;;;;;;;2.97;2.88;;;30.50;65.80;;;;;;4994779;28;20692;-77
2022/07/12 10:07:19;;;;;;;3.00;2.90;;;30.50;67.70;;;;;;4994000;28;20180;-78
2022/07/12 10:09:50;;;;;;;3.85;3.75;;;29.40;67.50;;;;;;4993886;28;20239;-77
2022/07/12 10:12:17;;;;;;;4.40;4.30;;;29.10;67.80;;;;;;4993354;28;20543;-78
2022/07/12 10:14:44;;;;;;;4.88;4.78;;;29.10;68.90;;;;;;4993440;28;20184;-77
2022/07/12 10:17:12;;;;;;;4.88;4.68;;;28.50;69.00;;;;;;4993794;28;20193;-77
2022/07/12 10:19:39;;;;;;;4.63;4.53;;;27.60;71.60;;;;;;4994531;28;20204;-77
2022/07/12 10:22:06;;;;;;;3.72;3.63;;;27.30;72.60;;;;;;4994475;28;20271;-76
2022/07/12 10:24:32;;;;;;;7.35;7.07;;;28.40;72.50;;;;;;4993223;28;20218;-77
2022/07/12 10:27:21;;;;;;;3.65;3.55;;;29.60;71.20;;;;;;4993696;28;20270;-77
2022/07/12 10:29:49;;;;;;;3.33;3.13;;;29.70;68.00;;;;;;4994074;28;20200;-77
2022/07/12 10:32:31;;;;;;;4.22;4.13;;;29.30;70.40;;;;;;4993719;28;20176;-77
2022/07/12 10:35:11;;;;;;;3.67;3.58;;;29.70;69.20;;;;;;4994714;28;20192;-76
2022/07/12 10:37:38;;;;;;;3.72;3.63;;;30.80;64.70;;;;;;4993733;28;20194;-79
2022/07/12 10:40:18;;;;;;;3.08;2.97;;;30.30;63.50;;;;;;4994608;28;20184;-77
2022/07/12 10:43:05;;;;;;;13.30;12.80;;;30.70;64.20;;;;;;4994056;28;20187;-77
2022/07/12 10:45:33;;;;;;;6.38;6.18;;;30.70;61.10;;;;;;4993848;28;20204;-77
2022/07/12 10:48:04;;;;;;;3.90;3.80;;;29.60;63.10;;;;;;4993011;28;20850;-77
2022/07/12 10:53:42;;;;;;;2.75;2.75;;;30.00;63.50;;;;;;4993915;28;20184;-78
2022/07/12 10:56:13;;;;;;;3.80;3.70;;;30.50;63.10;;;;;;4992708;28;20191;-78
2022/07/12 10:58:42;;;;;;;7.78;7.50;;;31.40;62.10;;;;;;4992964;28;20766;-78
2022/07/12 11:01:16;;;;;;;42.90;40.95;;;31.80;60.50;;;;;;4992586;28;20656;-77
2022/07/12 11:03:46;;;;;;;82.40;78.55;;;32.60;58.80;;;;;;4993677;28;20191;-78
2022/07/12 11:06:21;;;;;;;111.28;106.13;;;32.20;59.10;;;;;;4993630;28;20689;-77
2022/07/12 11:09:00;;;;;;;124.18;118.30;;;32.60;57.30;;;;;;4992144;28;20247;-78
2022/07/12 11:11:40;;;;;;;176.77;168.45;;;32.70;58.40;;;;;;4994093;28;20250;-78
2022/07/12 11:14:07;;;;;;;246.60;234.63;;;32.50;58.40;;;;;;4994205;28;20192;-78
2022/07/12 11:16:32;;;;;;;251.57;239.35;;;33.10;56.50;;;;;;4994069;28;20188;-78
2022/07/12 11:18:58;;;;;;;176.77;168.35;;;32.40;55.50;;;;;;4995898;28;20204;-78
2022/07/12 11:21:25;;;;;;;186.90;178.07;;;32.00;56.70;;;;;;5002934;28;20258;-77
2022/07/12 11:23:51;;;;;;;229.93;218.65;;;32.10;56.40;;;;;;5002512;28;20184;-78
2022/07/12 11:26:17;;;;;;;279.17;265.58;;;32.70;55.40;;;;;;5001734;28;20215;-79
2022/07/12 11:28:45;;;;;;;297.85;282.95;;;33.30;55.00;;;;;;5000256;28;20689;-77
2022/07/12 11:31:16;;;;;;;311.90;296.45;;;33.30;54.90;;;;;;4992630;28;20191;-78
2022/07/12 11:33:47;;;;;;;312.42;297.00;;;33.70;54.10;;;;;;4993212;28;20184;-78
2022/07/12 11:36:14;;;;;;;313.70;298.23;;;33.70;53.30;;;;;;4993072;28;20223;-77
2022/07/12 11:38:45;;;;;;;303.00;288.08;;;33.70;52.90;;;;;;4992050;28;20209;-77
2022/07/12 11:41:13;;;;;;;271.45;258.25;;;33.60;54.60;;;;;;4992024;28;20657;-78
2022/07/12 11:43:40;;;;;;;235.73;224.48;;;33.70;54.00;;;;;;4997938;28;20673;-77
2022/07/12 11:46:07;;;;;;;276.55;262.98;;;33.80;52.70;;;;;;4995806;28;20220;-78
2022/07/12 11:48:35;;;;;;;160.88;153.30;;;34.20;53.70;;;;;;4992459;28;20196;-78
2022/07/12 11:51:06;;;;;;;149.57;142.65;;;34.80;50.70;;;;;;4993036;28;20747;-78
2022/07/12 11:53:34;;;;;;;181.05;172.57;;;34.30;50.90;;;;;;4992882;28;20676;-77
2022/07/12 11:56:01;;;;;;;180.48;171.88;;;34.30;52.30;;;;;;4992800;28;20585;-78
2022/07/12 11:58:28;;;;;;;158.77;151.32;;;34.80;52.20;;;;;;4990946;28;20235;-78
2022/07/12 12:00:55;;;;;;;144.85;138.07;;;35.10;50.70;;;;;;4993053;28;20181;-78
2022/07/12 12:03:22;;;;;;;165.85;157.90;;;35.70;51.50;;;;;;4991621;28;20272;-77
2022/07/12 12:05:57;;;;;;;189.02;180.15;;;34.20;50.80;;;;;;4992478;28;20208;-77
2022/07/12 12:08:23;;;;;;;253.90;241.73;;;32.60;54.00;;;;;;4991290;28;20604;-78
2022/07/12 12:11:07;;;;;;;376.17;356.75;;;31.10;56.40;;;;;;4991184;28;20587;-77
2022/07/12 12:13:33;;;;;;;248.13;236.20;;;29.70;57.70;;;;;;4992396;28;20219;-77
2022/07/12 12:16:01;;;;;;;215.23;204.82;;;29.90;59.00;;;;;;4992425;28;20211;-78
2022/07/12 12:18:35;;;;;;;289.13;275.05;;;31.50;56.40;;;;;;4991473;28;20709;-77
2022/07/12 12:21:04;;;;;;;281.88;268.02;;;32.90;54.90;;;;;;4992492;28;20720;-78
2022/07/12 12:23:30;;;;;;;168.25;160.40;;;33.60;53.40;;;;;;4993414;28;20188;-78
2022/07/12 12:26:20;;;;;;;158.93;151.45;;;34.20;50.10;;;;;;4995398;28;20278;-77
2022/07/12 12:28:51;;;;;;;153.52;146.38;;;34.50;50.80;;;;;;4992026;28;20669;-78
2022/07/12 12:31:22;;;;;;;171.27;163.20;;;35.50;50.50;;;;;;4991721;28;20184;-78
2022/07/12 12:33:49;;;;;;;49.97;47.65;;;36.40;47.60;;;;;;4993114;28;20279;-78
2022/07/12 12:36:16;;;;;;;45.03;42.97;;;37.00;46.30;;;;;;4992336;28;20558;-78
2022/07/12 12:38:42;;;;;;;28.65;27.38;;;36.70;46.60;;;;;;4991421;28;20208;-78
2022/07/12 12:41:09;;;;;;;14.15;13.57;;;36.90;45.90;;;;;;4992027;28;20211;-77
2022/07/12 12:43:36;;;;;;;44.38;42.30;;;36.40;46.00;;;;;;4990817;28;20239;-78
2022/07/12 12:46:02;;;;;;;120.28;114.68;;;35.50;46.40;;;;;;4992588;28;20219;-78
2022/07/12 12:48:32;;;;;;;150.52;143.38;;;35.10;47.30;;;;;;4991445;28;20503;-78
2022/07/12 12:51:10;;;;;;;149.63;142.60;;;34.80;47.80;;;;;;4992701;28;20267;-79